createdAt,value
2019-04-23T00:01:28.465Z,6.00
2019-04-23T00:03:51.625Z,5.80
2019-04-23T00:06:23.552Z,5.53
2019-04-23T00:08:58.117Z,5.80
2019-04-23T00:11:32.415Z,5.97
2019-04-23T00:14:03.560Z,5.60
2019-04-23T00:18:49.393Z,5.67
2019-04-23T00:21:33.146Z,6.37
2019-04-23T00:29:09.830Z,5.93
2019-04-23T00:31:34.980Z,5.93
2019-04-23T00:34:01.065Z,6.90
2019-04-23T00:36:44.280Z,6.33
2019-04-23T00:39:18.739Z,6.13
2019-04-23T00:44:02.305Z,7.03
2019-04-23T00:46:35.234Z,6.80
2019-04-23T00:49:06.089Z,6.60
2019-04-23T00:51:33.088Z,6.50
2019-04-23T00:54:06.087Z,7.00
2019-04-23T00:59:00.430Z,6.60
2019-04-23T01:04:22.850Z,6.83
2019-04-23T01:06:29.011Z,7.40
2019-04-23T01:09:03.831Z,6.90
2019-04-23T01:11:32.023Z,6.63
2019-04-23T01:14:04.298Z,6.77
2019-04-23T01:16:33.431Z,7.40
2019-04-23T01:19:22.533Z,7.20
2019-04-23T01:21:28.482Z,7.53
2019-04-23T01:24:06.416Z,7.40
2019-04-23T01:27:23.924Z,7.33
2019-04-23T01:29:42.483Z,7.30
2019-04-23T01:32:15.846Z,7.60
2019-04-23T01:34:49.529Z,7.43
2019-04-23T01:37:19.267Z,8.30
2019-04-23T01:39:49.974Z,8.70
2019-04-23T01:42:22.493Z,8.00
2019-04-23T01:44:50.373Z,7.37
2019-04-23T01:47:17.300Z,7.67
2019-04-23T01:49:58.198Z,8.10
2019-04-23T01:52:14.605Z,7.80
2019-04-23T01:54:45.754Z,8.00
2019-04-23T01:59:48.615Z,8.33
2019-04-23T02:02:24.518Z,7.67
2019-04-23T02:04:58.867Z,8.07
2019-04-23T02:07:24.561Z,8.00
2019-04-23T02:09:48.343Z,8.43
2019-04-23T02:12:18.076Z,8.47
2019-04-23T02:14:49.669Z,8.17
2019-04-23T02:17:26.324Z,8.50
2019-04-23T02:19:51.548Z,8.50
2019-04-23T02:22:31.607Z,8.23
2019-04-23T02:24:54.100Z,9.10
2019-04-23T02:27:29.535Z,8.93
2019-04-23T02:30:10.664Z,8.37
2019-04-23T02:32:33.510Z,8.70
2019-04-23T02:35:09.541Z,8.97
2019-04-23T02:37:49.585Z,8.30
2019-04-23T02:40:04.048Z,9.00
2019-04-23T02:43:01.278Z,8.77
2019-04-23T02:45:07.130Z,8.80
2019-04-23T02:47:31.866Z,8.73
2019-04-23T02:50:20.090Z,8.47
2019-04-23T02:52:29.011Z,8.83
2019-04-23T02:55:18.122Z,9.13
2019-04-23T02:57:35.288Z,9.83
2019-04-23T03:02:48.214Z,8.83
2019-04-23T03:07:41.958Z,8.90
2019-04-23T03:10:08.226Z,9.30
2019-04-23T03:13:09.101Z,9.57
2019-04-23T03:15:22.172Z,9.27
2019-04-23T03:18:29.016Z,8.90
2019-04-23T03:23:22.868Z,9.90
2019-04-23T03:25:45.978Z,9.57
2019-04-23T03:28:25.245Z,9.53
2019-04-23T03:32:37.434Z,9.80
2019-04-23T03:38:45.662Z,9.00
2019-04-23T03:41:02.523Z,9.90
2019-04-23T03:43:33.738Z,9.57
2019-04-23T03:46:16.318Z,9.80
2019-04-23T03:50:43.465Z,9.57
2019-04-23T03:53:32.603Z,9.67
2019-04-23T03:56:17.839Z,10.97
2019-04-23T03:58:27.894Z,10.03
2019-04-23T04:00:58.397Z,10.40
2019-04-23T04:11:04.201Z,10.17
2019-04-23T04:13:31.575Z,10.37
2019-04-23T04:16:07.398Z,9.90
2019-04-23T04:18:44.442Z,10.63
2019-04-23T04:21:08.701Z,10.70
2019-04-23T04:23:32.771Z,10.23
2019-04-23T04:26:00.813Z,10.47
2019-04-23T04:28:48.889Z,10.87
2019-04-23T04:30:59.554Z,10.77
2019-04-23T04:33:36.866Z,11.83
2019-04-23T04:36:13.267Z,10.87
2019-04-23T04:38:42.389Z,10.53
2019-04-23T04:41:01.121Z,10.60
2019-04-23T04:43:44.928Z,10.77
2019-04-23T04:48:33.024Z,11.23
2019-04-23T04:51:08.046Z,11.07
2019-04-23T04:56:14.038Z,11.10
2019-04-23T04:58:39.327Z,11.03
2019-04-23T05:01:07.602Z,11.43
2019-04-23T05:03:26.862Z,10.37
2019-04-23T05:11:09.297Z,10.80
2019-04-23T05:13:39.152Z,11.00
2019-04-23T05:16:08.017Z,11.33
2019-04-23T05:18:47.141Z,11.43
2019-04-23T05:26:17.816Z,11.50
2019-04-23T05:28:49.162Z,11.57
2019-04-23T05:31:14.723Z,11.37
2019-04-23T05:33:46.440Z,11.60
2019-04-23T05:36:26.302Z,11.50
2019-04-23T05:38:51.061Z,10.83
2019-04-23T05:41:16.930Z,11.13
2019-04-23T05:43:57.454Z,11.00
2019-04-23T05:46:22.158Z,10.87
2019-04-23T05:48:45.612Z,11.67
2019-04-23T05:53:47.337Z,12.27
2019-04-23T05:56:13.232Z,11.40
2019-04-23T05:58:52.932Z,11.47
2019-04-23T06:04:05.322Z,11.27
2019-04-23T06:14:05.322Z,11.30
2019-04-23T06:16:31.383Z,11.20
2019-04-23T06:19:02.916Z,11.37
2019-04-23T06:21:38.732Z,11.43
2019-04-23T06:23:58.291Z,11.07
2019-04-23T06:28:58.815Z,11.17
2019-04-23T06:31:32.536Z,11.23
2019-04-23T06:34:11.144Z,11.73
2019-04-23T06:41:34.897Z,10.47
2019-04-23T06:44:12.966Z,11.67
2019-04-23T06:46:39.868Z,11.10
2019-04-23T06:49:02.403Z,10.77
2019-04-23T06:51:40.124Z,11.30
2019-04-23T06:54:04.458Z,10.77
2019-04-23T06:59:07.588Z,10.33
2019-04-23T07:01:37.810Z,10.77
2019-04-23T07:04:08.368Z,10.47
2019-04-23T07:06:58.050Z,10.50
2019-04-23T07:11:33.869Z,10.17
2019-04-23T07:14:12.648Z,10.57
2019-04-23T07:16:32.849Z,10.70
2019-04-23T07:19:12.744Z,10.63
2019-04-23T07:21:51.367Z,10.57
2019-04-23T07:24:16.889Z,11.17
2019-04-23T07:29:34.057Z,9.80
2019-04-23T07:36:45.838Z,9.23
2019-04-23T07:42:20.963Z,10.13
2019-04-23T07:44:48.418Z,8.77
2019-04-23T07:49:50.527Z,9.13
2019-04-23T07:54:56.653Z,9.17
2019-04-23T07:57:21.849Z,10.03
2019-04-23T07:59:48.738Z,9.23
2019-04-23T08:02:22.032Z,8.17
2019-04-23T08:05:02.548Z,8.80
2019-04-23T08:07:22.911Z,10.87
2019-04-23T08:09:54.700Z,9.17
2019-04-23T08:14:53.544Z,9.07
2019-04-23T08:17:17.289Z,8.30
2019-04-23T08:19:56.116Z,8.83
2019-04-23T08:22:35.337Z,8.33
2019-04-23T08:27:24.087Z,11.73
2019-04-23T08:29:50.908Z,8.67
2019-04-23T08:32:35.076Z,9.30
2019-04-23T08:34:58.624Z,8.57
2019-04-23T08:39:52.575Z,10.17
2019-04-23T08:42:45.361Z,7.40
2019-04-23T08:45:23.744Z,8.10
2019-04-23T08:48:07.569Z,12.77
2019-04-23T08:50:32.680Z,7.60
2019-04-23T08:53:17.686Z,8.23
2019-04-23T08:55:38.503Z,7.60
2019-04-23T08:58:09.668Z,8.23
2019-04-23T09:00:40.439Z,9.23
2019-04-23T09:03:14.651Z,17.43
2019-04-23T09:10:41.050Z,7.00
2019-04-23T09:13:34.811Z,13.23
2019-04-23T09:15:44.577Z,26.90
2019-04-23T09:23:11.602Z,7.40
2019-04-23T09:25:47.689Z,7.60
2019-04-23T09:28:23.886Z,7.00
2019-04-23T09:30:49.257Z,7.17
2019-04-23T09:33:23.942Z,9.07
2019-04-23T09:35:52.854Z,7.67
2019-04-23T09:38:27.672Z,7.17
2019-04-23T09:41:29.974Z,9.30
2019-04-23T09:43:47.130Z,7.08
2019-04-23T09:51:23.617Z,6.47
2019-04-23T09:53:50.904Z,6.53
2019-04-23T09:56:25.065Z,6.10
2019-04-23T09:58:51.741Z,6.72
2019-04-23T10:01:26.620Z,7.25
2019-04-23T10:03:46.248Z,6.03
2019-04-23T10:06:14.884Z,6.42
2019-04-23T10:08:42.956Z,6.33
2019-04-23T10:11:07.515Z,6.25
2019-04-23T10:13:36.541Z,6.28
2019-04-23T10:16:06.924Z,6.67
2019-04-23T10:18:35.288Z,6.10
2019-04-23T10:21:05.492Z,6.20
2019-04-23T10:23:34.114Z,6.00
2019-04-23T10:26:03.879Z,6.50
2019-04-23T10:28:35.813Z,5.95
2019-04-23T10:31:04.951Z,5.90
2019-04-23T10:33:34.381Z,5.83
2019-04-23T10:36:08.803Z,5.60
2019-04-23T10:38:34.623Z,5.67
2019-04-23T10:41:06.272Z,5.53
2019-04-23T10:43:38.760Z,5.42
2019-04-23T10:46:43.314Z,4.97
2019-04-23T10:52:07.084Z,5.35
2019-04-23T10:57:02.136Z,6.53
2019-04-23T10:59:53.919Z,5.60
2019-04-23T11:07:27.052Z,5.15
2019-04-23T11:09:55.832Z,5.62
2019-04-23T11:12:32.935Z,4.80
2019-04-23T11:14:58.398Z,5.30
2019-04-23T11:20:01.346Z,5.92
2019-04-23T11:25:03.480Z,4.90
2019-04-23T11:27:31.314Z,5.33
2019-04-23T11:30:01.222Z,4.92
2019-04-23T11:35:14.288Z,5.05
2019-04-23T11:37:54.681Z,5.37
2019-04-23T11:40:04.034Z,4.65
2019-04-23T11:45:24.788Z,5.50
2019-04-23T11:50:16.205Z,5.83
2019-04-23T11:52:36.616Z,5.40
2019-04-23T11:55:02.487Z,5.55
2019-04-23T11:57:40.727Z,5.33
2019-04-23T11:59:59.482Z,4.83
2019-04-23T12:02:51.280Z,5.30
2019-04-23T12:05:30.050Z,5.12
2019-04-23T12:07:50.281Z,5.25
2019-04-23T12:12:57.539Z,5.10
2019-04-23T12:15:37.691Z,4.87
2019-04-23T12:20:33.485Z,8.20
2019-04-23T12:23:03.895Z,4.78
2019-04-23T12:25:36.182Z,5.65
2019-04-23T12:27:47.049Z,5.45
2019-04-23T12:30:33.900Z,5.00
2019-04-23T12:33:26.897Z,5.12
2019-04-23T12:35:29.455Z,5.05
2019-04-23T12:41:04.988Z,4.78
2019-04-23T12:43:29.424Z,4.85
2019-04-23T12:46:03.523Z,4.95
2019-04-23T12:51:09.280Z,4.92
2019-04-23T12:53:49.397Z,4.20
2019-04-23T12:56:12.901Z,8.93
2019-04-23T12:58:34.126Z,5.28
2019-04-23T13:01:05.241Z,4.75
2019-04-23T13:06:10.084Z,4.70
2019-04-23T13:08:45.486Z,4.65
2019-04-23T13:11:14.028Z,4.22
2019-04-23T13:13:46.252Z,4.50
2019-04-23T13:18:46.710Z,4.95
2019-04-23T13:21:30.038Z,5.10
2019-04-23T13:23:40.986Z,4.60
2019-04-23T13:26:04.050Z,5.05
2019-04-23T13:28:45.307Z,4.87
2019-04-23T13:33:58.612Z,4.35
2019-04-23T13:43:43.676Z,4.58
2019-04-23T13:46:17.820Z,4.95
2019-04-23T13:48:41.927Z,4.40
2019-04-23T13:51:20.767Z,4.10
2019-04-23T13:53:53.650Z,4.70
2019-04-23T13:56:30.240Z,4.40
2019-04-23T13:58:51.190Z,4.95
2019-04-23T14:01:28.038Z,4.42
2019-04-23T14:06:35.046Z,5.08
2019-04-23T14:16:29.642Z,4.10
2019-04-23T14:18:58.398Z,4.60
2019-04-23T14:38:57.354Z,4.45
2019-04-23T14:44:02.067Z,4.55
2019-04-23T14:46:43.102Z,4.87
2019-04-23T14:48:58.271Z,5.37
2019-04-23T14:51:42.703Z,4.75
2019-04-23T14:54:17.374Z,5.15
2019-04-23T15:01:34.829Z,5.53
2019-04-23T15:03:55.588Z,6.27
2019-04-23T15:09:06.301Z,4.40
2019-04-23T15:14:10.083Z,5.20
2019-04-23T15:16:39.668Z,5.80
2019-04-23T15:19:14.551Z,6.60
2019-04-23T15:21:46.719Z,5.60
2019-04-23T15:28:44.154Z,5.10
2019-04-23T15:36:59.398Z,6.40
2019-04-23T15:39:16.872Z,6.33
2019-04-23T15:41:40.104Z,5.93
2019-04-23T15:44:08.594Z,6.70
2019-04-23T15:49:21.360Z,5.87
2019-04-23T15:59:28.971Z,6.40
2019-04-23T16:01:37.741Z,6.70
2019-04-23T16:03:41.868Z,6.47
2019-04-23T16:06:11.440Z,7.00
2019-04-23T16:09:06.386Z,7.43
2019-04-23T16:16:58.230Z,6.93
2019-04-23T16:19:19.046Z,8.93
2019-04-23T16:24:19.538Z,6.50
2019-04-23T16:31:56.485Z,7.67
2019-04-23T16:34:29.114Z,7.10
2019-04-23T16:36:54.831Z,6.63
2019-04-23T16:39:21.505Z,7.13
2019-04-23T16:44:36.996Z,6.77
2019-04-23T16:49:21.977Z,6.53
2019-04-23T16:51:54.138Z,6.77
2019-04-23T16:54:36.832Z,7.00
2019-04-23T16:59:24.682Z,7.17
2019-04-23T17:02:11.173Z,7.00
2019-04-23T17:06:58.262Z,7.37
2019-04-23T17:09:35.629Z,6.37
2019-04-23T17:12:06.397Z,6.50
2019-04-23T17:14:27.477Z,7.23
2019-04-23T17:16:54.995Z,7.40
2019-04-23T17:19:29.426Z,7.30
2019-04-23T17:22:04.331Z,6.90
2019-04-23T17:24:30.514Z,7.67
2019-04-23T17:32:10.345Z,7.60
2019-04-23T17:34:57.071Z,7.93
2019-04-23T17:37:26.816Z,7.87
2019-04-23T17:40:08.541Z,8.43
2019-04-23T17:42:58.413Z,7.80
2019-04-23T17:45:31.394Z,8.20
2019-04-23T17:47:52.493Z,8.13
2019-04-23T17:50:20.205Z,7.87
2019-04-23T17:53:03.345Z,7.47
2019-04-23T17:57:55.835Z,7.43
2019-04-23T18:03:02.730Z,7.23
2019-04-23T18:08:03.343Z,7.50
2019-04-23T18:10:34.032Z,8.13
2019-04-23T18:15:38.109Z,8.43
2019-04-23T18:17:58.893Z,7.33
2019-04-23T18:20:37.963Z,7.80
2019-04-23T18:23:09.834Z,8.53
2019-04-23T18:25:51.707Z,8.43
2019-04-23T18:28:20.017Z,8.27
2019-04-23T18:31:10.334Z,9.10
2019-04-23T18:34:03.561Z,8.20
2019-04-23T18:36:14.909Z,8.77
2019-04-23T18:38:55.299Z,7.63
2019-04-23T18:41:15.761Z,7.90
2019-04-23T18:43:50.701Z,8.67
2019-04-23T18:46:28.252Z,8.33
2019-04-23T18:49:01.781Z,8.67
2019-04-23T18:51:27.146Z,8.40
2019-04-23T19:01:31.036Z,9.53
2019-04-23T19:04:09.771Z,9.07
2019-04-23T19:09:09.980Z,8.77
2019-04-23T19:14:32.159Z,8.40
2019-04-23T19:17:33.537Z,8.87
2019-04-23T19:19:28.605Z,10.30
2019-04-23T19:22:14.546Z,8.77
2019-04-23T19:24:27.624Z,9.27
2019-04-23T19:29:41.658Z,9.07
2019-04-23T19:34:40.800Z,9.20
2019-04-23T19:39:40.099Z,9.50
2019-04-23T19:44:41.193Z,8.97
2019-04-23T19:47:33.333Z,9.13
2019-04-23T19:49:38.896Z,9.13
2019-04-23T20:04:40.735Z,9.73
2019-04-23T20:07:22.668Z,9.47
2019-04-23T20:12:14.108Z,9.93
2019-04-23T20:19:56.765Z,10.37
2019-04-23T20:27:21.879Z,9.97
2019-04-23T20:35:05.399Z,10.63
2019-04-23T20:37:42.649Z,10.90
2019-04-23T20:42:44.543Z,11.57
2019-04-23T20:47:28.119Z,11.00
2019-04-23T20:49:47.908Z,11.10
2019-04-23T20:52:22.161Z,11.53
2019-04-23T21:00:04.747Z,11.60
2019-04-23T21:20:34.074Z,12.23
2019-04-23T21:23:05.586Z,13.00
2019-04-23T21:25:30.198Z,11.97
2019-04-23T21:28:05.535Z,11.43
2019-04-23T21:31:02.246Z,12.40
2019-04-23T21:33:20.053Z,12.20
2019-04-23T21:36:05.033Z,12.60
2019-04-23T21:38:51.703Z,12.20
2019-04-23T21:43:59.253Z,13.20
2019-04-23T21:46:15.913Z,11.77
2019-04-23T21:48:59.877Z,12.27
2019-04-23T21:53:42.139Z,13.23
2019-04-23T21:56:09.065Z,12.87
2019-04-23T21:58:53.599Z,12.97
2019-04-23T22:01:21.268Z,13.03
2019-04-23T22:04:06.508Z,12.13
2019-04-23T22:06:22.196Z,11.90
2019-04-23T22:08:52.504Z,12.77
2019-04-23T22:11:53.780Z,13.47
2019-04-23T22:13:58.340Z,13.33
2019-04-23T22:21:19.622Z,13.40
2019-04-23T22:23:59.545Z,13.30
2019-04-23T22:26:25.420Z,13.50
2019-04-23T22:28:58.429Z,13.77
2019-04-23T22:31:18.652Z,14.07
2019-04-23T22:33:53.548Z,13.60
2019-04-23T22:36:39.239Z,13.60
2019-04-23T22:38:52.769Z,13.77
2019-04-23T22:41:17.809Z,13.37
2019-04-23T22:44:02.421Z,13.33
2019-04-23T22:46:27.943Z,13.50
2019-04-23T22:49:07.919Z,13.97
2019-04-23T22:51:42.023Z,14.00
2019-04-23T22:54:03.716Z,13.47
2019-04-23T22:56:25.944Z,13.07
2019-04-23T22:59:11.925Z,13.80
2019-04-23T23:01:38.620Z,13.53
2019-04-23T23:04:04.501Z,14.20
2019-04-23T23:11:39.683Z,13.90
2019-04-23T23:14:22.420Z,14.97
2019-04-23T23:16:36.982Z,13.80
2019-04-23T23:19:15.019Z,13.90
2019-04-23T23:21:47.207Z,13.23
2019-04-23T23:24:09.970Z,13.60
2019-04-23T23:26:42.864Z,14.47
2019-04-23T23:29:09.012Z,14.10
2019-04-23T23:31:36.855Z,14.20
2019-04-23T23:34:06.843Z,13.70
2019-04-23T23:39:18.125Z,13.30
2019-04-23T23:41:43.941Z,13.73
2019-04-23T23:44:33.331Z,13.67
2019-04-23T23:49:11.113Z,14.03
2019-04-23T23:51:40.094Z,13.47
2019-04-23T23:54:10.331Z,13.73
2019-04-23T23:56:39.822Z,13.50
2019-04-23T23:59:13.942Z,13.30
